Aviation Digital Data Service (ADDS)

Output produced by TAFs form (0006 UTC 08 July 2015)
found at http://www.aviationweather.gov/adds/tafs/
 
KAPA 072353Z 22004KT 2SM -DZ BR FEW024 SCT075 OVC095 15/14 A3013 RMK AO2 SFC VIS 2 1/2 RAE36DZB36 SLP161 P0005 60016 T01500139 10206 20139 58009
KAPA 072332Z 0800/0824 17012KT 4SM HZ VCTS SCT050CB BKN080 
     TEMPO 0800/0801 2SM -SHRA BR BKN050 
     FM080100 18010KT P6SM VCSH SCT050 BKN080 
     TEMPO 0801/0805 4SM HZ BKN050 
     FM080500 18010KT P6SM SCT050 BKN080 
     FM081200 25010KT P6SM VCSH SCT050 BKN080 
     FM081500 34010KT P6SM VCSH BKN050 OVC080 
     FM081800 34012KT P6SM -SHRA BKN050 OVC080 
     TEMPO 0818/0822 3SM -TSRA BKN030CB 
     FM082200 34012KT P6SM -SHRA BKN050 OVC080 
     PROB30 0822/0824 -TSRA BKN030CB